createdAt,value
2023-05-13T00:00:18.444Z,1026.85
2023-05-13T00:01:19.060Z,1026.88
2023-05-13T00:02:18.372Z,1026.84
2023-05-13T00:03:18.476Z,1026.85
2023-05-13T00:04:18.373Z,1026.87
2023-05-13T00:05:18.364Z,1026.86
2023-05-13T00:06:18.446Z,1026.85
2023-05-13T00:07:18.379Z,1026.84
2023-05-13T00:08:18.369Z,1026.82
2023-05-13T00:09:18.382Z,1026.83
2023-05-13T00:10:18.403Z,1026.84
2023-05-13T00:11:18.389Z,1026.84
2023-05-13T00:12:18.375Z,1026.86
2023-05-13T00:13:18.399Z,1026.85
2023-05-13T00:14:18.382Z,1026.86
2023-05-13T00:15:18.420Z,1026.85
2023-05-13T00:16:18.454Z,1026.82
2023-05-13T00:17:18.397Z,1026.84
2023-05-13T00:18:18.409Z,1026.85
2023-05-13T00:19:18.426Z,1026.87
2023-05-13T00:20:18.537Z,1026.84
2023-05-13T00:21:18.400Z,1026.87
2023-05-13T00:22:18.393Z,1026.83
2023-05-13T00:23:18.437Z,1026.87
2023-05-13T00:24:18.415Z,1026.82
2023-05-13T00:25:18.453Z,1026.84
2023-05-13T00:26:18.408Z,1026.85
2023-05-13T00:27:18.410Z,1026.81
2023-05-13T00:28:18.410Z,1026.82
2023-05-13T00:29:18.439Z,1026.81
2023-05-13T00:30:18.559Z,1026.87
2023-05-13T00:31:18.480Z,1026.88
2023-05-13T00:32:18.485Z,1026.88
2023-05-13T00:33:18.430Z,1026.88
2023-05-13T00:34:18.426Z,1026.90
2023-05-13T00:35:18.427Z,1026.90
2023-05-13T00:36:18.432Z,1026.88
2023-05-13T00:37:18.436Z,1026.93
2023-05-13T00:38:18.436Z,1026.96
2023-05-13T00:39:18.439Z,1026.92
2023-05-13T00:40:18.506Z,1026.94
2023-05-13T00:41:18.448Z,1026.94
2023-05-13T00:42:18.448Z,1026.93
2023-05-13T00:43:18.456Z,1026.97
2023-05-13T00:44:18.454Z,1027.02
2023-05-13T00:45:18.456Z,1026.99
2023-05-13T00:46:18.518Z,1027.04
2023-05-13T00:47:18.500Z,1027.01
2023-05-13T00:48:18.483Z,1027.00
2023-05-13T00:49:18.466Z,1027.02
2023-05-13T00:50:18.531Z,1027.03
2023-05-13T00:51:18.469Z,1027.02
2023-05-13T00:52:18.478Z,1027.01
2023-05-13T00:53:18.475Z,1027.01
2023-05-13T00:54:18.477Z,1026.99
2023-05-13T00:55:18.486Z,1026.99
2023-05-13T00:56:18.480Z,1027.01
2023-05-13T00:57:18.485Z,1027.01
2023-05-13T00:58:18.489Z,1027.02
2023-05-13T00:59:18.494Z,1027.06
2023-05-13T01:00:18.676Z,1027.04
2023-05-13T01:01:18.516Z,1027.07
2023-05-13T01:02:18.495Z,1027.07
2023-05-13T01:03:18.580Z,1027.04
2023-05-13T01:04:18.525Z,1027.09
2023-05-13T01:05:18.501Z,1027.09
2023-05-13T01:06:18.514Z,1027.07
2023-05-13T01:07:18.518Z,1027.11
2023-05-13T01:08:18.510Z,1027.13
2023-05-13T01:09:18.571Z,1027.12
2023-05-13T01:10:18.522Z,1027.14
2023-05-13T01:11:18.516Z,1027.09
2023-05-13T01:12:18.525Z,1027.10
2023-05-13T01:13:18.518Z,1027.09
2023-05-13T01:14:18.522Z,1027.11
2023-05-13T01:15:18.523Z,1027.12
2023-05-13T01:16:18.580Z,1027.13
2023-05-13T01:17:18.534Z,1027.09
2023-05-13T01:18:18.537Z,1027.10
2023-05-13T01:19:18.538Z,1027.07
2023-05-13T01:20:18.600Z,1027.09
2023-05-13T01:21:18.544Z,1027.10
2023-05-13T01:22:18.547Z,1027.16
2023-05-13T01:23:18.543Z,1027.14
2023-05-13T01:24:18.570Z,1027.11
2023-05-13T01:25:18.546Z,1027.08
2023-05-13T01:26:18.556Z,1027.11
2023-05-13T01:27:18.561Z,1027.14
2023-05-13T01:28:18.574Z,1027.09
2023-05-13T01:29:18.559Z,1027.16
2023-05-13T01:30:18.639Z,1027.10
2023-05-13T01:31:18.610Z,1027.16
2023-05-13T01:32:18.569Z,1027.13
2023-05-13T01:33:18.591Z,1027.13
2023-05-13T01:34:18.565Z,1027.17
2023-05-13T01:35:18.567Z,1027.13
2023-05-13T01:36:18.597Z,1027.17
2023-05-13T01:37:18.577Z,1027.13
2023-05-13T01:38:18.580Z,1027.16
2023-05-13T01:39:18.579Z,1027.15
2023-05-13T01:40:31.889Z,1027.09
2023-05-13T01:41:18.588Z,1027.17
2023-05-13T01:42:18.588Z,1027.19
2023-05-13T01:43:18.593Z,1027.17
2023-05-13T01:44:18.592Z,1027.20
2023-05-13T01:45:18.616Z,1027.18
2023-05-13T01:46:18.659Z,1027.20
2023-05-13T01:47:18.596Z,1027.23
2023-05-13T01:48:18.612Z,1027.16
2023-05-13T01:49:18.605Z,1027.18
2023-05-13T01:50:18.851Z,1027.16
2023-05-13T01:51:18.610Z,1027.23
2023-05-13T01:52:18.637Z,1027.23
2023-05-13T01:53:18.615Z,1027.19
2023-05-13T01:54:18.617Z,1027.22
2023-05-13T01:55:18.621Z,1027.21
2023-05-13T01:56:18.639Z,1027.28
2023-05-13T01:57:18.627Z,1027.24
2023-05-13T01:58:18.626Z,1027.27
2023-05-13T01:59:18.625Z,1027.31
2023-05-13T02:00:18.806Z,1027.24
2023-05-13T02:01:20.467Z,1027.26
2023-05-13T02:02:18.686Z,1027.29
2023-05-13T02:03:18.755Z,1027.24
2023-05-13T02:04:18.642Z,1027.27
2023-05-13T02:05:18.643Z,1027.26
2023-05-13T02:06:18.644Z,1027.22
2023-05-13T02:07:18.659Z,1027.26
2023-05-13T02:08:18.790Z,1027.29
2023-05-13T02:09:18.649Z,1027.23
2023-05-13T02:10:18.750Z,1027.26
2023-05-13T02:11:18.659Z,1027.27
2023-05-13T02:12:18.678Z,1027.25
2023-05-13T02:13:18.660Z,1027.33
2023-05-13T02:14:18.659Z,1027.28
2023-05-13T02:15:18.697Z,1027.29
2023-05-13T02:16:18.708Z,1027.27
2023-05-13T02:17:18.685Z,1027.32
2023-05-13T02:18:18.685Z,1027.28
2023-05-13T02:19:18.683Z,1027.28
2023-05-13T02:20:18.737Z,1027.31
2023-05-13T02:21:18.691Z,1027.29
2023-05-13T02:22:18.688Z,1027.30
2023-05-13T02:23:18.696Z,1027.31
2023-05-13T02:24:18.724Z,1027.32
2023-05-13T02:25:18.690Z,1027.31
2023-05-13T02:26:18.711Z,1027.30
2023-05-13T02:27:18.695Z,1027.30
2023-05-13T02:28:18.701Z,1027.30
2023-05-13T02:29:18.709Z,1027.31
2023-05-13T02:30:18.707Z,1027.30
2023-05-13T02:31:18.827Z,1027.30
2023-05-13T02:32:18.722Z,1027.28
2023-05-13T02:33:18.713Z,1027.27
2023-05-13T02:34:18.710Z,1027.26
2023-05-13T02:35:18.716Z,1027.26
2023-05-13T02:36:18.719Z,1027.26
2023-05-13T02:37:18.754Z,1027.27
2023-05-13T02:38:18.742Z,1027.26
2023-05-13T02:39:18.721Z,1027.27
2023-05-13T02:40:18.891Z,1027.27
2023-05-13T02:41:18.756Z,1027.28
2023-05-13T02:42:18.730Z,1027.28
2023-05-13T02:43:18.748Z,1027.27
2023-05-13T02:44:18.737Z,1027.29
2023-05-13T02:45:18.734Z,1027.29
2023-05-13T02:46:18.849Z,1027.35
2023-05-13T02:47:18.763Z,1027.29
2023-05-13T02:48:18.763Z,1027.33
2023-05-13T02:49:18.797Z,1027.34
2023-05-13T02:50:18.912Z,1027.30
2023-05-13T02:51:18.765Z,1027.27
2023-05-13T02:52:18.750Z,1027.28
2023-05-13T02:53:18.757Z,1027.26
2023-05-13T02:54:18.757Z,1027.26
2023-05-13T02:55:18.831Z,1027.28
2023-05-13T02:56:18.810Z,1027.30
2023-05-13T02:57:18.771Z,1027.26
2023-05-13T02:58:18.775Z,1027.27
2023-05-13T02:59:18.790Z,1027.27
2023-05-13T03:00:18.822Z,1027.28
2023-05-13T03:01:18.859Z,1027.31
2023-05-13T03:02:18.894Z,1027.30
2023-05-13T03:03:19.026Z,1027.29
2023-05-13T03:04:18.794Z,1027.28
2023-05-13T03:05:18.792Z,1027.31
2023-05-13T03:06:18.797Z,1027.33
2023-05-13T03:07:18.795Z,1027.30
2023-05-13T03:08:18.806Z,1027.29
2023-05-13T03:09:18.801Z,1027.34
2023-05-13T03:10:18.956Z,1027.34
2023-05-13T03:11:18.809Z,1027.33
2023-05-13T03:12:18.827Z,1027.35
2023-05-13T03:13:18.809Z,1027.35
2023-05-13T03:14:18.812Z,1027.38
2023-05-13T03:15:18.811Z,1027.34
2023-05-13T03:16:18.883Z,1027.36
2023-05-13T03:17:18.837Z,1027.33
2023-05-13T03:18:18.820Z,1027.36
2023-05-13T03:19:18.896Z,1027.38
2023-05-13T03:20:18.883Z,1027.41
2023-05-13T03:21:18.825Z,1027.39
2023-05-13T03:22:18.853Z,1027.40
2023-05-13T03:23:18.826Z,1027.37
2023-05-13T03:24:18.856Z,1027.43
2023-05-13T03:25:18.837Z,1027.44
2023-05-13T03:26:18.833Z,1027.41
2023-05-13T03:27:18.838Z,1027.44
2023-05-13T03:28:18.860Z,1027.41
2023-05-13T03:29:18.843Z,1027.39
2023-05-13T03:30:18.978Z,1027.44
2023-05-13T03:31:18.875Z,1027.43
2023-05-13T03:32:18.886Z,1027.40
2023-05-13T03:33:18.854Z,1027.43
2023-05-13T03:34:18.850Z,1027.40
2023-05-13T03:35:18.863Z,1027.41
2023-05-13T03:36:18.856Z,1027.38
2023-05-13T03:37:18.870Z,1027.37
2023-05-13T03:38:18.858Z,1027.42
2023-05-13T03:39:19.023Z,1027.41
2023-05-13T03:40:19.045Z,1027.43
2023-05-13T03:41:18.868Z,1027.43
2023-05-13T03:42:18.872Z,1027.42
2023-05-13T03:43:18.879Z,1027.43
2023-05-13T03:44:18.950Z,1027.42
2023-05-13T03:45:18.874Z,1027.43
2023-05-13T03:46:18.935Z,1027.44
2023-05-13T03:47:18.880Z,1027.45
2023-05-13T03:48:18.892Z,1027.47
2023-05-13T03:49:18.881Z,1027.49
2023-05-13T03:50:18.963Z,1027.46
2023-05-13T03:51:18.888Z,1027.53
2023-05-13T03:52:18.896Z,1027.51
2023-05-13T03:53:18.896Z,1027.52
2023-05-13T03:54:18.903Z,1027.55
2023-05-13T03:55:18.898Z,1027.54
2023-05-13T03:56:18.916Z,1027.54
2023-05-13T03:57:18.907Z,1027.52
2023-05-13T03:58:18.913Z,1027.48
2023-05-13T03:59:18.915Z,1027.50
2023-05-13T04:00:19.152Z,1027.53
2023-05-13T04:01:18.912Z,1027.52
2023-05-13T04:02:19.102Z,1027.48
2023-05-13T04:03:19.025Z,1027.47
2023-05-13T04:04:18.921Z,1027.47
2023-05-13T04:05:19.080Z,1027.48
2023-05-13T04:06:18.937Z,1027.45
2023-05-13T04:07:18.985Z,1027.46
2023-05-13T04:08:18.933Z,1027.48
2023-05-13T04:09:18.930Z,1027.48
2023-05-13T04:10:19.101Z,1027.48
2023-05-13T04:11:18.943Z,1027.49
2023-05-13T04:12:18.938Z,1027.50
2023-05-13T04:13:18.947Z,1027.52
2023-05-13T04:14:18.949Z,1027.51
2023-05-13T04:15:18.952Z,1027.49
2023-05-13T04:16:19.016Z,1027.48
2023-05-13T04:17:19.012Z,1027.48
2023-05-13T04:18:18.962Z,1027.44
2023-05-13T04:19:19.067Z,1027.47
2023-05-13T04:20:19.025Z,1027.48
2023-05-13T04:21:18.966Z,1027.44
2023-05-13T04:22:18.967Z,1027.44
2023-05-13T04:23:18.966Z,1027.42
2023-05-13T04:24:18.987Z,1027.40
2023-05-13T04:25:18.972Z,1027.41
2023-05-13T04:26:18.978Z,1027.39
2023-05-13T04:27:18.977Z,1027.37
2023-05-13T04:28:18.975Z,1027.39
2023-05-13T04:29:19.290Z,1027.40
2023-05-13T04:30:19.072Z,1027.42
2023-05-13T04:31:19.007Z,1027.42
2023-05-13T04:32:19.009Z,1027.44
2023-05-13T04:33:18.994Z,1027.42
2023-05-13T04:34:18.990Z,1027.43
2023-05-13T04:35:18.999Z,1027.41
2023-05-13T04:36:19.000Z,1027.41
2023-05-13T04:37:19.000Z,1027.45
2023-05-13T04:38:18.999Z,1027.44
2023-05-13T04:39:19.006Z,1027.42
2023-05-13T04:40:19.147Z,1027.42
2023-05-13T04:41:19.008Z,1027.42
2023-05-13T04:42:19.010Z,1027.40
2023-05-13T04:43:19.013Z,1027.43
2023-05-13T04:44:19.011Z,1027.40
2023-05-13T04:45:19.312Z,1027.42
2023-05-13T04:46:19.035Z,1027.40
2023-05-13T04:47:19.062Z,1027.42
2023-05-13T04:48:19.048Z,1027.44
2023-05-13T04:49:19.021Z,1027.45
2023-05-13T04:50:19.167Z,1027.45
2023-05-13T04:51:19.038Z,1027.45
2023-05-13T04:52:19.035Z,1027.49
2023-05-13T04:53:19.035Z,1027.46
2023-05-13T04:54:19.034Z,1027.52
2023-05-13T04:55:19.037Z,1027.52
2023-05-13T04:56:19.044Z,1027.51
2023-05-13T04:57:19.049Z,1027.53
2023-05-13T04:58:19.043Z,1027.54
2023-05-13T04:59:19.054Z,1027.52
2023-05-13T05:00:19.164Z,1027.52
2023-05-13T05:01:19.096Z,1027.57
2023-05-13T05:02:19.058Z,1027.53
2023-05-13T05:03:19.059Z,1027.53
2023-05-13T05:04:19.179Z,1027.53
2023-05-13T05:05:19.108Z,1027.55
2023-05-13T05:06:19.078Z,1027.54
2023-05-13T05:07:19.066Z,1027.57
2023-05-13T05:08:19.075Z,1027.52
2023-05-13T05:09:19.073Z,1027.59
2023-05-13T05:10:19.170Z,1027.56
2023-05-13T05:11:19.080Z,1027.58
2023-05-13T05:12:19.084Z,1027.60
2023-05-13T05:13:19.076Z,1027.61
2023-05-13T05:14:19.081Z,1027.55
2023-05-13T05:15:19.088Z,1027.59
2023-05-13T05:16:19.083Z,1027.61
2023-05-13T05:17:19.118Z,1027.59
2023-05-13T05:18:19.268Z,1027.58
2023-05-13T05:19:19.138Z,1027.56
2023-05-13T05:20:19.400Z,1027.58
2023-05-13T05:21:19.096Z,1027.52
2023-05-13T05:22:19.107Z,1027.63
2023-05-13T05:23:19.118Z,1027.56
2023-05-13T05:24:19.108Z,1027.55
2023-05-13T05:25:19.109Z,1027.56
2023-05-13T05:26:19.163Z,1027.55
2023-05-13T05:27:19.116Z,1027.57
2023-05-13T05:28:19.124Z,1027.57
2023-05-13T05:29:19.114Z,1027.55
2023-05-13T05:30:19.304Z,1027.60
2023-05-13T05:31:19.166Z,1027.57
2023-05-13T05:32:19.197Z,1027.56
2023-05-13T05:33:19.128Z,1027.57
2023-05-13T05:34:19.132Z,1027.55
2023-05-13T05:35:19.133Z,1027.60
2023-05-13T05:36:19.158Z,1027.57
2023-05-13T05:37:19.140Z,1027.56
2023-05-13T05:38:19.139Z,1027.56
2023-05-13T05:39:19.144Z,1027.59
2023-05-13T05:40:19.316Z,1027.62
2023-05-13T05:41:19.175Z,1027.57
2023-05-13T05:42:19.148Z,1027.61
2023-05-13T05:43:19.162Z,1027.58
2023-05-13T05:44:19.163Z,1027.62
2023-05-13T05:45:19.155Z,1027.62
2023-05-13T05:46:19.245Z,1027.60
2023-05-13T05:47:19.160Z,1027.62
2023-05-13T05:48:19.162Z,1027.63
2023-05-13T05:49:19.174Z,1027.63
2023-05-13T05:50:19.285Z,1027.67
2023-05-13T05:51:19.169Z,1027.65
2023-05-13T05:52:19.260Z,1027.62
2023-05-13T05:53:19.198Z,1027.67
2023-05-13T05:54:19.180Z,1027.67
2023-05-13T05:55:19.175Z,1027.69
2023-05-13T05:56:19.207Z,1027.67
2023-05-13T05:57:19.185Z,1027.65
2023-05-13T05:58:19.252Z,1027.68
2023-05-13T05:59:19.185Z,1027.66
2023-05-13T06:00:19.272Z,1027.70
2023-05-13T06:01:19.188Z,1027.65
2023-05-13T06:02:19.243Z,1027.63
2023-05-13T06:03:19.337Z,1027.62
2023-05-13T06:04:19.264Z,1027.65
2023-05-13T06:05:19.201Z,1027.63
2023-05-13T06:06:19.204Z,1027.63
2023-05-13T06:07:19.234Z,1027.64
2023-05-13T06:08:19.230Z,1027.62
2023-05-13T06:09:19.220Z,1027.64
2023-05-13T06:10:19.514Z,1027.62
2023-05-13T06:11:19.219Z,1027.62
2023-05-13T06:12:19.216Z,1027.60
2023-05-13T06:13:19.218Z,1027.57
2023-05-13T06:14:19.225Z,1027.61
2023-05-13T06:15:19.224Z,1027.58
2023-05-13T06:16:19.251Z,1027.58
2023-05-13T06:17:19.242Z,1027.60
2023-05-13T06:18:19.237Z,1027.58
2023-05-13T06:19:19.240Z,1027.60
2023-05-13T06:20:19.560Z,1027.55
2023-05-13T06:21:19.238Z,1027.54
2023-05-13T06:22:19.241Z,1027.57
2023-05-13T06:23:19.250Z,1027.59
2023-05-13T06:24:19.264Z,1027.62
2023-05-13T06:25:19.291Z,1027.60
2023-05-13T06:26:19.259Z,1027.63
2023-05-13T06:27:19.251Z,1027.55
2023-05-13T06:28:19.282Z,1027.60
2023-05-13T06:29:19.264Z,1027.58
2023-05-13T06:30:19.469Z,1027.66
2023-05-13T06:31:19.283Z,1027.64
2023-05-13T06:32:19.281Z,1027.63
2023-05-13T06:33:19.349Z,1027.67
2023-05-13T06:34:19.267Z,1027.62
2023-05-13T06:35:19.279Z,1027.60
2023-05-13T06:36:19.275Z,1027.61
2023-05-13T06:37:19.279Z,1027.62
2023-05-13T06:38:19.296Z,1027.62
2023-05-13T06:39:19.282Z,1027.63
2023-05-13T06:40:19.473Z,1027.62
2023-05-13T06:41:19.541Z,1027.64
2023-05-13T06:42:19.299Z,1027.59
2023-05-13T06:43:19.299Z,1027.60
2023-05-13T06:44:19.306Z,1027.59
2023-05-13T06:45:19.302Z,1027.59
2023-05-13T06:46:19.341Z,1027.64
2023-05-13T06:47:20.199Z,1027.64
2023-05-13T06:48:19.309Z,1027.61
2023-05-13T06:49:19.304Z,1027.59
2023-05-13T06:50:19.545Z,1027.58
2023-05-13T06:51:19.320Z,1027.58
2023-05-13T06:52:19.320Z,1027.62
2023-05-13T06:53:19.317Z,1027.61
2023-05-13T06:54:19.328Z,1027.60
2023-05-13T06:55:19.321Z,1027.59
2023-05-13T06:56:19.349Z,1027.59
2023-05-13T06:57:19.402Z,1027.56
2023-05-13T06:58:19.340Z,1027.58
2023-05-13T06:59:19.328Z,1027.63
2023-05-13T07:00:19.481Z,1027.62
2023-05-13T07:01:19.385Z,1027.63
2023-05-13T07:02:19.347Z,1027.60
2023-05-13T07:03:19.370Z,1027.60
2023-05-13T07:04:19.590Z,1027.60
2023-05-13T07:05:19.347Z,1027.54
2023-05-13T07:06:19.350Z,1027.56
2023-05-13T07:07:19.359Z,1027.56
2023-05-13T07:08:19.423Z,1027.55
2023-05-13T07:09:19.350Z,1027.57
2023-05-13T07:10:19.467Z,1027.57
2023-05-13T07:11:19.357Z,1027.55
2023-05-13T07:12:19.377Z,1027.60
2023-05-13T07:13:19.363Z,1027.58
2023-05-13T07:14:19.361Z,1027.58
2023-05-13T07:15:19.433Z,1027.62
2023-05-13T07:16:19.522Z,1027.61
2023-05-13T07:17:19.444Z,1027.62
2023-05-13T07:18:19.452Z,1027.60
2023-05-13T07:19:19.521Z,1027.54
2023-05-13T07:20:19.634Z,1027.56
2023-05-13T07:21:19.380Z,1027.58
2023-05-13T07:22:19.379Z,1027.59
2023-05-13T07:23:19.389Z,1027.59
2023-05-13T07:24:19.387Z,1027.58
2023-05-13T07:25:19.414Z,1027.60
2023-05-13T07:26:19.389Z,1027.59
2023-05-13T07:27:19.394Z,1027.57
2023-05-13T07:28:19.418Z,1027.68
2023-05-13T07:29:19.398Z,1027.59
2023-05-13T07:30:19.519Z,1027.62
2023-05-13T07:31:19.500Z,1027.65
2023-05-13T07:32:19.414Z,1027.60
2023-05-13T07:33:19.419Z,1027.64
2023-05-13T07:34:19.393Z,1027.63
2023-05-13T07:35:19.484Z,1027.65
2023-05-13T07:36:19.404Z,1027.66
2023-05-13T07:37:19.403Z,1027.68
2023-05-13T07:38:19.402Z,1027.66
2023-05-13T07:39:19.398Z,1027.67
2023-05-13T07:40:19.489Z,1027.69
2023-05-13T07:41:19.402Z,1027.68
2023-05-13T07:42:19.407Z,1027.68
2023-05-13T07:43:19.396Z,1027.64
2023-05-13T07:44:19.425Z,1027.66
2023-05-13T07:45:19.561Z,1027.62
2023-05-13T07:46:19.398Z,1027.66
2023-05-13T07:47:19.462Z,1027.65
2023-05-13T07:48:19.390Z,1027.63
2023-05-13T07:49:19.394Z,1027.60
2023-05-13T07:50:19.401Z,1027.60
2023-05-13T07:51:19.388Z,1027.65
2023-05-13T07:52:19.390Z,1027.64
2023-05-13T07:53:20.014Z,1027.62
2023-05-13T07:54:19.387Z,1027.57
2023-05-13T07:55:19.524Z,1027.59
2023-05-13T07:56:19.389Z,1027.63
2023-05-13T07:57:19.391Z,1027.62
2023-05-13T07:58:19.386Z,1027.65
2023-05-13T07:59:19.392Z,1027.65
2023-05-13T08:00:19.400Z,1027.67
2023-05-13T08:01:19.390Z,1027.63
2023-05-13T08:02:19.400Z,1027.62
2023-05-13T08:03:19.526Z,1027.60
2023-05-13T08:04:19.534Z,1027.57
2023-05-13T08:05:19.442Z,1027.65
2023-05-13T08:06:19.376Z,1027.56
2023-05-13T08:07:19.377Z,1027.58
2023-05-13T08:08:19.368Z,1027.59
2023-05-13T08:09:19.368Z,1027.59
2023-05-13T08:10:19.380Z,1027.64
2023-05-13T08:11:19.386Z,1027.64
2023-05-13T08:12:19.364Z,1027.64
2023-05-13T08:13:19.370Z,1027.59
2023-05-13T08:14:19.361Z,1027.58
2023-05-13T08:15:19.560Z,1027.64
2023-05-13T08:16:19.423Z,1027.62
2023-05-13T08:17:19.358Z,1027.56
2023-05-13T08:18:19.358Z,1027.63
2023-05-13T08:19:19.499Z,1027.60
2023-05-13T08:20:19.360Z,1027.57
2023-05-13T08:21:19.352Z,1027.60
2023-05-13T08:22:19.351Z,1027.59
2023-05-13T08:23:19.359Z,1027.56
2023-05-13T08:24:19.351Z,1027.58
2023-05-13T08:25:19.562Z,1027.57
2023-05-13T08:26:19.351Z,1027.53
2023-05-13T08:27:19.347Z,1027.51
2023-05-13T08:28:19.350Z,1027.51
2023-05-13T08:29:19.344Z,1027.52
2023-05-13T08:30:19.360Z,1027.47
2023-05-13T08:31:19.401Z,1027.50
2023-05-13T08:32:19.646Z,1027.50
2023-05-13T08:33:19.343Z,1027.49
2023-05-13T08:34:19.353Z,1027.52
2023-05-13T08:35:19.460Z,1027.44
2023-05-13T08:36:19.438Z,1027.48
2023-05-13T08:37:19.400Z,1027.44
2023-05-13T08:38:19.343Z,1027.45
2023-05-13T08:39:19.348Z,1027.46
2023-05-13T08:40:19.334Z,1027.52
2023-05-13T08:41:21.743Z,1027.49
2023-05-13T08:42:19.403Z,1027.53
2023-05-13T08:43:19.340Z,1027.47
2023-05-13T08:44:19.351Z,1027.47
2023-05-13T08:45:19.443Z,1027.45
2023-05-13T08:46:19.428Z,1027.46
2023-05-13T08:47:19.330Z,1027.45
2023-05-13T08:48:19.356Z,1027.49
2023-05-13T08:49:19.360Z,1027.43
2023-05-13T08:50:19.327Z,1027.45
2023-05-13T08:51:19.342Z,1027.45
2023-05-13T08:52:19.330Z,1027.51
2023-05-13T08:53:19.323Z,1027.53
2023-05-13T08:54:20.360Z,1027.47
2023-05-13T08:55:19.520Z,1027.50
2023-05-13T08:56:19.324Z,1027.48
2023-05-13T08:57:19.325Z,1027.44
2023-05-13T08:58:19.327Z,1027.47
2023-05-13T08:59:19.322Z,1027.49
2023-05-13T09:00:21.434Z,1027.46
2023-05-13T09:01:19.374Z,1027.54
2023-05-13T09:02:19.314Z,1027.50
2023-05-13T09:03:19.319Z,1027.46
2023-05-13T09:04:19.341Z,1027.53
2023-05-13T09:05:19.377Z,1027.53
2023-05-13T09:06:19.388Z,1027.49
2023-05-13T09:07:19.324Z,1027.47
2023-05-13T09:08:19.332Z,1027.50
2023-05-13T09:09:19.331Z,1027.47
2023-05-13T09:10:19.310Z,1027.44
2023-05-13T09:11:19.324Z,1027.46
2023-05-13T09:12:19.329Z,1027.45
2023-05-13T09:13:19.332Z,1027.42
2023-05-13T09:14:19.385Z,1027.45
2023-05-13T09:15:19.571Z,1027.46
2023-05-13T09:16:19.562Z,1027.44
2023-05-13T09:17:19.351Z,1027.47
2023-05-13T09:18:19.635Z,1027.49
2023-05-13T09:19:19.444Z,1027.44
2023-05-13T09:20:19.431Z,1027.41
2023-05-13T09:21:19.342Z,1027.37
2023-05-13T09:22:19.312Z,1027.44
2023-05-13T09:23:19.331Z,1027.42
2023-05-13T09:24:19.303Z,1027.43
2023-05-13T09:25:19.384Z,1027.42
2023-05-13T09:26:19.336Z,1027.38
2023-05-13T09:27:19.302Z,1027.35
2023-05-13T09:28:19.316Z,1027.40
2023-05-13T09:29:19.332Z,1027.38
2023-05-13T09:30:19.309Z,1027.34
2023-05-13T09:31:19.347Z,1027.37
2023-05-13T09:32:19.303Z,1027.40
2023-05-13T09:33:19.303Z,1027.35
2023-05-13T09:34:19.303Z,1027.34
2023-05-13T09:35:19.513Z,1027.32
2023-05-13T09:36:19.326Z,1027.31
2023-05-13T09:37:19.301Z,1027.30
2023-05-13T09:38:19.298Z,1027.31
2023-05-13T09:39:19.307Z,1027.28
2023-05-13T09:40:19.475Z,1027.31
2023-05-13T09:41:19.319Z,1027.29
2023-05-13T09:42:19.332Z,1027.31
2023-05-13T09:43:19.304Z,1027.32
2023-05-13T09:44:19.308Z,1027.32
2023-05-13T09:45:19.349Z,1027.28
2023-05-13T09:46:19.334Z,1027.31
2023-05-13T09:47:19.330Z,1027.31
2023-05-13T09:48:19.296Z,1027.27
2023-05-13T09:49:19.315Z,1027.29
2023-05-13T09:50:19.532Z,1027.28
2023-05-13T09:51:19.316Z,1027.32
2023-05-13T09:52:19.328Z,1027.25
2023-05-13T09:53:19.302Z,1027.24
2023-05-13T09:54:19.317Z,1027.23
2023-05-13T09:55:19.299Z,1027.23
2023-05-13T09:56:19.297Z,1027.21
2023-05-13T09:57:19.300Z,1027.14
2023-05-13T09:58:19.289Z,1027.20
2023-05-13T09:59:19.333Z,1027.16
2023-05-13T10:00:31.507Z,1027.19
2023-05-13T10:01:19.340Z,1027.18
2023-05-13T10:02:19.300Z,1027.17
2023-05-13T10:03:19.313Z,1027.19
2023-05-13T10:04:19.457Z,1027.12
2023-05-13T10:05:19.297Z,1027.18
2023-05-13T10:06:19.288Z,1027.19
2023-05-13T10:07:19.293Z,1027.15
2023-05-13T10:08:19.315Z,1027.19
2023-05-13T10:09:19.296Z,1027.20
2023-05-13T10:10:19.462Z,1027.17
2023-05-13T10:11:19.288Z,1027.18
2023-05-13T10:12:19.286Z,1027.19
2023-05-13T10:13:19.300Z,1027.19
2023-05-13T10:14:19.292Z,1027.19
2023-05-13T10:15:19.290Z,1027.14
2023-05-13T10:16:19.302Z,1027.11
2023-05-13T10:17:19.288Z,1027.10
2023-05-13T10:18:19.458Z,1027.11
2023-05-13T10:19:19.334Z,1027.14
2023-05-13T10:20:19.322Z,1027.14
2023-05-13T10:21:19.285Z,1027.10
2023-05-13T10:22:19.287Z,1027.13
2023-05-13T10:23:19.289Z,1027.09
2023-05-13T10:24:19.307Z,1027.10
2023-05-13T10:25:19.295Z,1027.10
2023-05-13T10:26:19.285Z,1027.11
2023-05-13T10:27:19.285Z,1027.10
2023-05-13T10:28:19.289Z,1027.11
2023-05-13T10:29:19.281Z,1027.08
2023-05-13T10:30:19.324Z,1027.09
2023-05-13T10:31:19.313Z,1027.12
2023-05-13T10:32:19.348Z,1027.09
2023-05-13T10:33:19.290Z,1027.06
2023-05-13T10:34:19.286Z,1027.13
2023-05-13T10:35:19.279Z,1027.12
2023-05-13T10:36:19.278Z,1027.10
2023-05-13T10:37:19.284Z,1027.09
2023-05-13T10:38:19.288Z,1027.10
2023-05-13T10:39:19.282Z,1027.06
2023-05-13T10:40:19.471Z,1027.02
2023-05-13T10:41:19.285Z,1027.03
2023-05-13T10:42:19.272Z,1027.03
2023-05-13T10:43:19.276Z,1027.02
2023-05-13T10:44:19.279Z,1027.03
2023-05-13T10:45:19.287Z,1027.00
2023-05-13T10:46:19.306Z,1027.04
2023-05-13T10:47:19.328Z,1027.03
2023-05-13T10:48:19.530Z,1027.01
2023-05-13T10:49:19.275Z,1026.97
2023-05-13T10:50:19.470Z,1027.01
2023-05-13T10:51:19.275Z,1026.99
2023-05-13T10:52:19.289Z,1027.00
2023-05-13T10:53:19.280Z,1026.99
2023-05-13T10:54:19.282Z,1026.97
2023-05-13T10:55:19.272Z,1026.96
2023-05-13T10:56:19.296Z,1026.97
2023-05-13T10:57:19.276Z,1026.96
2023-05-13T10:58:19.278Z,1026.95
2023-05-13T10:59:19.275Z,1026.95
2023-05-13T11:00:19.458Z,1026.99
2023-05-13T11:01:19.329Z,1027.02
2023-05-13T11:02:19.311Z,1027.01
2023-05-13T11:03:19.452Z,1027.01
2023-05-13T11:04:19.278Z,1026.99
2023-05-13T11:05:19.278Z,1027.02
2023-05-13T11:06:19.282Z,1027.00
2023-05-13T11:07:19.279Z,1027.01
2023-05-13T11:08:19.300Z,1026.99
2023-05-13T11:09:19.289Z,1026.99
2023-05-13T11:10:19.410Z,1026.95
2023-05-13T11:11:19.335Z,1027.02
2023-05-13T11:12:19.325Z,1026.97
2023-05-13T11:13:19.282Z,1027.00
2023-05-13T11:14:19.287Z,1026.98
2023-05-13T11:15:19.275Z,1026.90
2023-05-13T11:16:19.341Z,1026.93
2023-05-13T11:17:19.279Z,1026.94
2023-05-13T11:18:19.290Z,1026.92
2023-05-13T11:19:19.286Z,1026.95
2023-05-13T11:20:19.418Z,1026.95
2023-05-13T11:21:19.284Z,1026.97
2023-05-13T11:22:19.269Z,1026.96
2023-05-13T11:23:19.299Z,1026.91
2023-05-13T11:24:19.279Z,1026.95
2023-05-13T11:25:19.278Z,1026.93
2023-05-13T11:26:19.331Z,1026.94
2023-05-13T11:27:19.280Z,1026.97
2023-05-13T11:28:19.299Z,1026.95
2023-05-13T11:29:19.284Z,1026.94
2023-05-13T11:30:19.436Z,1026.92
2023-05-13T11:31:19.315Z,1026.98
2023-05-13T11:32:19.275Z,1026.94
2023-05-13T11:33:19.283Z,1026.94
2023-05-13T11:34:19.282Z,1026.93
2023-05-13T11:35:19.276Z,1026.94
2023-05-13T11:36:19.281Z,1026.94
2023-05-13T11:37:19.277Z,1026.96
2023-05-13T11:38:19.289Z,1026.96
2023-05-13T11:39:19.302Z,1026.97
2023-05-13T11:40:19.361Z,1026.98
2023-05-13T11:41:19.276Z,1027.00
2023-05-13T11:42:19.279Z,1027.01
2023-05-13T11:43:19.285Z,1027.00
2023-05-13T11:44:19.307Z,1027.01
2023-05-13T11:45:19.383Z,1027.00
2023-05-13T11:46:19.325Z,1026.98
2023-05-13T11:47:19.275Z,1026.99
2023-05-13T11:48:19.285Z,1026.99
2023-05-13T11:49:19.278Z,1026.99
2023-05-13T11:50:19.290Z,1026.99
2023-05-13T11:51:19.277Z,1027.00
2023-05-13T11:52:19.284Z,1027.01
2023-05-13T11:53:19.285Z,1026.97
2023-05-13T11:54:19.278Z,1027.00
2023-05-13T11:55:19.388Z,1026.97
2023-05-13T11:56:19.281Z,1026.99
2023-05-13T11:57:19.288Z,1027.00
2023-05-13T11:58:19.289Z,1026.97
2023-05-13T11:59:19.284Z,1027.01
2023-05-13T12:00:19.312Z,1026.96
2023-05-13T12:01:19.281Z,1026.98
2023-05-13T12:02:19.362Z,1026.97
2023-05-13T12:03:19.320Z,1026.99
2023-05-13T12:04:19.278Z,1027.01
2023-05-13T12:05:19.342Z,1027.01